createdAt,value
2018-03-15T06:39:18.088Z,99.99
2018-03-15T06:40:02.816Z,99.99
2018-03-15T06:40:47.537Z,99.99
2018-03-15T06:41:32.266Z,99.99
2018-03-15T06:42:16.988Z,99.99
2018-03-15T06:43:01.695Z,99.99
2018-03-15T06:43:46.397Z,99.99
2018-03-15T06:44:31.104Z,99.99
2018-03-15T06:45:15.835Z,99.99
2018-03-15T06:46:00.562Z,99.99
2018-03-15T06:46:45.316Z,99.99
2018-03-15T06:47:30.066Z,99.99
2018-03-15T06:48:14.779Z,99.99
2018-03-15T06:48:59.483Z,99.99
2018-03-15T06:49:44.224Z,99.99
2018-03-15T06:50:28.909Z,99.99
2018-03-15T06:51:13.637Z,99.99
2018-03-15T06:51:58.371Z,99.99
2018-03-15T06:52:43.072Z,99.99
2018-03-15T06:53:27.775Z,99.99
2018-03-15T06:54:12.481Z,99.99
2018-03-15T06:54:57.221Z,99.99
2018-03-15T06:55:41.964Z,99.99
2018-03-15T06:56:26.664Z,99.99
2018-03-15T06:57:11.398Z,99.99
2018-03-15T06:57:56.208Z,99.99
2018-03-15T06:58:40.943Z,99.99
2018-03-15T06:59:25.675Z,99.99
2018-03-15T07:00:10.387Z,99.99
2018-03-15T07:00:55.137Z,99.99
2018-03-15T07:01:39.863Z,99.99
2018-03-15T07:02:24.572Z,99.63
2018-03-15T07:03:09.274Z,99.06
2018-03-15T07:03:53.982Z,98.30
2018-03-15T07:04:38.689Z,98.11
2018-03-15T07:05:23.397Z,97.54
2018-03-15T07:06:08.172Z,97.07
2018-03-15T07:06:52.916Z,96.45
2018-03-15T07:07:37.655Z,95.69
2018-03-15T07:08:22.362Z,95.79
2018-03-15T07:09:07.089Z,95.31
2018-03-15T07:09:51.795Z,94.93
2018-03-15T07:10:36.531Z,94.37
2018-03-15T07:11:21.277Z,93.61
2018-03-15T07:12:05.988Z,93.41
2018-03-15T07:12:50.691Z,92.94
2018-03-15T07:13:35.396Z,91.99
2018-03-15T07:14:20.104Z,92.57
2018-03-15T07:15:04.835Z,92.66
2018-03-15T07:15:49.563Z,92.47
2018-03-15T07:16:34.308Z,92.47
2018-03-15T07:17:18.995Z,92.09
2018-03-15T07:18:03.923Z,91.90
2018-03-15T07:18:48.632Z,92.09
2018-03-15T07:19:33.339Z,91.71
2018-03-15T07:20:18.118Z,91.90
2018-03-15T07:21:02.827Z,91.90
2018-03-15T07:21:47.533Z,91.24
2018-03-15T07:22:32.262Z,90.67
2018-03-15T07:23:16.966Z,90.86
2018-03-15T07:24:01.676Z,90.48
2018-03-15T07:24:46.379Z,90.71
2018-03-15T07:25:31.133Z,90.81
2018-03-15T07:26:15.838Z,89.95
2018-03-15T07:27:00.551Z,89.76
2018-03-15T07:27:45.278Z,89.86
2018-03-15T07:28:29.988Z,89.76
2018-03-15T07:29:14.696Z,89.20
2018-03-15T07:29:59.418Z,89.20
2018-03-15T07:30:44.127Z,88.24
2018-03-15T07:31:28.886Z,88.53
2018-03-15T07:32:13.615Z,88.72
2018-03-15T07:32:58.350Z,88.81
2018-03-15T07:33:43.055Z,88.62
2018-03-15T07:34:27.778Z,88.72
2018-03-15T07:35:12.492Z,88.72
2018-03-15T07:35:57.192Z,88.15
2018-03-15T07:36:41.951Z,88.34
2018-03-15T07:37:26.678Z,87.49
2018-03-15T07:38:11.440Z,87.24
2018-03-15T07:38:56.191Z,86.77
2018-03-15T07:39:40.924Z,86.39
2018-03-15T07:40:25.632Z,86.49
2018-03-15T07:41:10.411Z,86.01
2018-03-15T07:41:55.142Z,85.91
2018-03-15T07:42:39.845Z,85.16
2018-03-15T07:43:24.554Z,85.53
2018-03-15T07:44:09.281Z,85.25
2018-03-15T07:44:53.992Z,85.53
2018-03-15T07:45:38.695Z,84.97
2018-03-15T07:46:23.404Z,85.63
2018-03-15T07:47:08.159Z,85.25
2018-03-15T07:47:52.889Z,85.06
2018-03-15T07:48:37.577Z,84.78
2018-03-15T07:49:22.286Z,84.11
2018-03-15T07:50:07.016Z,84.21
2018-03-15T07:50:51.762Z,84.21
2018-03-15T07:51:36.500Z,84.01
2018-03-15T07:52:21.223Z,83.97
2018-03-15T07:53:05.930Z,83.73
2018-03-15T07:53:50.634Z,83.45
2018-03-15T07:54:35.393Z,83.36
2018-03-15T07:55:20.131Z,82.97
2018-03-15T07:56:04.870Z,83.54
2018-03-15T07:56:49.579Z,83.26
2018-03-15T07:57:34.401Z,83.73
2018-03-15T07:58:19.097Z,83.36
2018-03-15T07:59:03.853Z,83.83
2018-03-15T07:59:48.575Z,83.45
2018-03-15T08:00:33.321Z,83.39
2018-03-15T08:01:18.068Z,82.92
2018-03-15T08:02:02.823Z,82.45
2018-03-15T08:02:47.504Z,82.16
2018-03-15T08:03:32.211Z,81.49
2018-03-15T08:04:16.968Z,81.12
2018-03-15T08:05:01.703Z,81.12
2018-03-15T08:05:46.456Z,80.83
2018-03-15T08:06:31.173Z,81.02
2018-03-15T08:07:15.936Z,81.02
2018-03-15T08:08:00.601Z,80.55
2018-03-15T08:08:45.362Z,81.21
2018-03-15T08:09:30.117Z,81.12
2018-03-15T08:10:14.886Z,81.74
2018-03-15T08:10:59.649Z,82.03
2018-03-15T08:11:44.413Z,82.35
2018-03-15T08:12:29.131Z,82.07
2018-03-15T08:13:13.839Z,81.78
2018-03-15T08:13:58.617Z,81.02
2018-03-15T08:14:43.397Z,81.02
2018-03-15T08:15:28.127Z,81.12
2018-03-15T08:16:12.832Z,81.12
2018-03-15T08:16:57.560Z,81.12
2018-03-15T08:17:42.276Z,80.88
2018-03-15T08:18:27.024Z,80.98
2018-03-15T08:19:11.731Z,81.36
2018-03-15T08:19:56.464Z,81.74
2018-03-15T08:20:41.171Z,81.74
2018-03-15T08:21:25.882Z,81.74
2018-03-15T08:22:10.608Z,81.30
2018-03-15T08:22:55.316Z,81.40
2018-03-15T08:23:40.017Z,81.21
2018-03-15T08:24:24.775Z,81.49
2018-03-15T08:25:09.493Z,80.83
2018-03-15T08:25:54.221Z,80.74
2018-03-15T08:26:38.961Z,80.35
2018-03-15T08:27:23.676Z,79.79
2018-03-15T08:28:08.412Z,80.45
2018-03-15T08:28:53.141Z,79.88
2018-03-15T08:29:37.873Z,80.74
2018-03-15T08:30:22.635Z,80.60
2018-03-15T08:31:07.371Z,80.51
2018-03-15T08:31:52.124Z,81.07
2018-03-15T08:32:36.866Z,80.98
2018-03-15T08:33:21.661Z,81.45
2018-03-15T08:34:06.367Z,81.74
2018-03-15T08:34:51.150Z,82.50
2018-03-15T08:35:35.894Z,82.50
2018-03-15T08:36:20.597Z,82.50
2018-03-15T08:37:05.350Z,82.69
2018-03-15T08:37:50.057Z,82.78
2018-03-15T08:38:34.767Z,81.65
2018-03-15T08:39:19.513Z,81.45
2018-03-15T08:40:04.252Z,80.60
2018-03-15T08:40:48.983Z,80.88
2018-03-15T08:41:33.748Z,80.79
2018-03-15T08:42:18.477Z,81.17
2018-03-15T08:43:03.182Z,81.17
2018-03-15T08:43:47.888Z,80.88
2018-03-15T08:44:32.596Z,80.98
2018-03-15T08:45:17.329Z,81.17
2018-03-15T08:46:02.007Z,80.98
2018-03-15T08:46:46.714Z,80.98
2018-03-15T08:47:31.442Z,82.12
2018-03-15T08:48:16.177Z,82.21
2018-03-15T08:49:00.940Z,82.21
2018-03-15T08:49:45.652Z,82.78
2018-03-15T08:50:30.359Z,82.50
2018-03-15T08:51:15.067Z,82.59
2018-03-15T08:51:59.850Z,82.59
2018-03-15T08:52:44.572Z,82.59
2018-03-15T08:53:29.280Z,82.88
2018-03-15T08:54:13.989Z,82.88
2018-03-15T08:54:58.690Z,83.12
2018-03-15T08:55:43.403Z,83.22
2018-03-15T08:56:28.134Z,83.88
2018-03-15T08:57:12.845Z,84.17
2018-03-15T08:57:57.565Z,84.55
2018-03-15T08:58:42.277Z,85.30
2018-03-15T08:59:27.037Z,85.02
2018-03-15T09:00:11.786Z,85.59
2018-03-15T09:00:56.448Z,85.68
2018-03-15T09:01:41.154Z,85.97
2018-03-15T09:02:25.883Z,85.97
2018-03-15T09:03:10.591Z,85.11
2018-03-15T09:03:55.327Z,85.30
2018-03-15T09:04:40.593Z,84.92
2018-03-15T09:05:24.806Z,85.02
2018-03-15T09:06:09.515Z,85.11
2018-03-15T09:06:54.267Z,84.36
2018-03-15T09:07:38.972Z,84.83
2018-03-15T09:08:23.665Z,84.01
2018-03-15T09:09:08.403Z,84.01
2018-03-15T09:09:53.115Z,84.11
2018-03-15T09:10:37.840Z,83.92
2018-03-15T09:11:22.570Z,84.01
2018-03-15T09:12:07.282Z,83.73
2018-03-15T09:12:51.980Z,84.11
2018-03-15T09:13:36.716Z,83.92
2018-03-15T09:14:21.459Z,83.54
2018-03-15T09:15:06.163Z,83.45
2018-03-15T09:15:50.871Z,83.64
2018-03-15T09:16:35.804Z,83.45
2018-03-15T09:17:20.516Z,83.92
2018-03-15T09:18:05.243Z,83.83
2018-03-15T09:18:50.027Z,83.73
2018-03-15T09:19:34.731Z,83.45
2018-03-15T09:20:19.481Z,82.69
2018-03-15T09:21:04.220Z,82.31
2018-03-15T09:21:48.928Z,82.40
2018-03-15T09:22:33.634Z,82.69
2018-03-15T09:23:18.366Z,82.40
2018-03-15T09:24:03.100Z,82.69
2018-03-15T09:24:47.809Z,82.45
2018-03-15T09:25:32.534Z,81.68
2018-03-15T09:26:17.246Z,81.30
2018-03-15T09:27:02.004Z,81.12
2018-03-15T09:27:46.703Z,81.21
2018-03-15T09:28:31.442Z,80.64
2018-03-15T09:29:16.171Z,80.35
2018-03-15T09:30:00.877Z,80.77
2018-03-15T09:30:45.634Z,80.58
2018-03-15T09:31:30.353Z,80.21
2018-03-15T09:32:15.067Z,79.63
2018-03-15T09:32:59.768Z,79.44
2018-03-15T09:33:44.480Z,79.25
2018-03-15T09:34:29.221Z,78.40
2018-03-15T09:35:13.911Z,78.53
2018-03-15T09:35:58.615Z,77.97
2018-03-15T09:36:43.333Z,77.39
2018-03-15T09:37:28.045Z,77.20
2018-03-15T09:38:12.801Z,76.73
2018-03-15T09:38:57.472Z,75.91
2018-03-15T09:39:42.162Z,75.72
2018-03-15T09:40:26.878Z,75.49
2018-03-15T09:41:11.576Z,75.72
2018-03-15T09:41:56.289Z,75.05
2018-03-15T09:42:41.004Z,75.15
2018-03-15T09:43:25.711Z,74.77
2018-03-15T09:44:10.421Z,75.05
2018-03-15T09:44:55.148Z,74.39
2018-03-15T09:45:39.912Z,74.29
2018-03-15T09:46:24.618Z,74.58
2018-03-15T09:47:09.377Z,74.01
2018-03-15T09:47:54.100Z,74.01
2018-03-15T09:48:38.826Z,74.10
2018-03-15T09:49:23.528Z,73.91
2018-03-15T09:50:08.268Z,73.53
2018-03-15T09:50:53.028Z,73.95
2018-03-15T09:51:37.788Z,73.76
2018-03-15T09:52:22.535Z,72.62
2018-03-15T09:53:07.235Z,73.10
2018-03-15T09:53:51.969Z,72.62
2018-03-15T09:54:36.743Z,71.76
2018-03-15T09:55:21.493Z,71.98
2018-03-15T09:56:06.222Z,71.89
2018-03-15T09:56:50.993Z,71.42
2018-03-15T09:57:35.701Z,70.94
2018-03-15T09:58:20.513Z,70.18
2018-03-15T09:59:05.239Z,70.75
2018-03-15T09:59:49.949Z,71.03
2018-03-15T10:00:34.787Z,70.75
2018-03-15T10:01:19.441Z,71.22
2018-03-15T10:02:04.161Z,70.62
2018-03-15T10:02:48.868Z,70.33
2018-03-15T10:03:33.662Z,70.18
2018-03-15T10:04:18.370Z,70.27
2018-03-15T10:05:03.090Z,70.18
2018-03-15T10:05:47.864Z,70.37
2018-03-15T10:06:32.543Z,70.47
2018-03-15T10:07:17.283Z,69.89
2018-03-15T10:08:02.037Z,70.27
2018-03-15T10:09:46.295Z,70.08
2018-03-15T10:10:31.073Z,70.08
2018-03-15T10:11:15.796Z,69.99
2018-03-15T10:12:00.506Z,69.89
2018-03-15T10:12:45.344Z,69.70
2018-03-15T10:13:30.086Z,69.32
2018-03-15T10:14:14.787Z,69.32
2018-03-15T10:14:59.497Z,69.32
2018-03-15T10:15:44.295Z,68.56
2018-03-15T10:16:29.076Z,68.94
2018-03-15T10:17:13.860Z,68.40
2018-03-15T10:17:58.592Z,68.21
2018-03-15T10:18:43.297Z,68.30
2018-03-15T10:19:28.003Z,67.83
2018-03-15T10:20:12.720Z,68.12
2018-03-15T10:20:57.450Z,68.08
2018-03-15T10:21:42.187Z,68.02
2018-03-15T10:22:26.902Z,67.70
2018-03-15T10:23:11.671Z,67.89
2018-03-15T10:23:56.378Z,68.18
2018-03-15T10:24:41.085Z,68.27
2018-03-15T10:25:26.390Z,68.84
2018-03-15T10:26:10.562Z,68.75
2018-03-15T10:26:55.325Z,69.32
2018-03-15T10:27:40.034Z,69.42
2018-03-15T10:28:24.763Z,69.51
2018-03-15T10:29:09.471Z,69.04
2018-03-15T10:29:54.229Z,69.13
2018-03-15T10:30:38.909Z,68.75
2018-03-15T10:31:23.619Z,68.88
2018-03-15T10:32:08.332Z,68.56
2018-03-15T10:32:53.052Z,68.59
2018-03-15T10:33:37.769Z,68.78
2018-03-15T10:34:22.471Z,68.88
2018-03-15T10:35:07.202Z,68.50
2018-03-15T10:35:51.919Z,68.02
2018-03-15T10:36:36.626Z,68.12
2018-03-15T10:37:21.436Z,68.50
2018-03-15T10:38:06.160Z,67.93
2018-03-15T10:38:50.876Z,68.02
2018-03-15T10:39:35.593Z,68.12
2018-03-15T10:40:20.370Z,68.30
2018-03-15T10:41:05.087Z,68.30
2018-03-15T10:41:49.799Z,68.02
2018-03-15T10:42:34.529Z,68.21
2018-03-15T10:43:19.232Z,68.30
2018-03-15T10:44:03.942Z,68.30
2018-03-15T10:44:48.656Z,68.02
2018-03-15T10:45:33.379Z,67.96
2018-03-15T10:46:18.147Z,67.96
2018-03-15T10:47:02.866Z,67.96
2018-03-15T10:47:47.588Z,67.77
2018-03-15T10:48:32.302Z,67.58
2018-03-15T10:49:17.020Z,67.68
2018-03-15T10:50:01.743Z,68.05
2018-03-15T10:50:46.453Z,68.05
2018-03-15T10:51:31.165Z,67.86
2018-03-15T10:52:15.884Z,67.96
2018-03-15T10:53:00.599Z,67.58
2018-03-15T10:53:45.354Z,67.48
2018-03-15T10:54:30.114Z,67.10
2018-03-15T10:55:14.834Z,67.00
2018-03-15T10:55:59.547Z,67.00
2018-03-15T10:56:44.261Z,67.20
2018-03-15T10:57:28.980Z,67.10
2018-03-15T10:58:13.691Z,67.14
2018-03-15T10:58:58.406Z,66.94
2018-03-15T10:59:43.181Z,67.14
2018-03-15T11:00:27.888Z,66.94
2018-03-15T11:01:12.597Z,67.14
2018-03-15T11:01:57.310Z,66.66
2018-03-15T11:02:42.042Z,66.75
2018-03-15T11:03:26.747Z,66.94
2018-03-15T11:04:11.461Z,66.47
2018-03-15T11:04:56.185Z,66.18
2018-03-15T11:05:40.894Z,66.38
2018-03-15T11:06:25.600Z,66.38
2018-03-15T11:07:10.353Z,66.18
2018-03-15T11:07:55.068Z,66.28
2018-03-15T11:08:39.788Z,66.18
2018-03-15T11:09:24.501Z,66.56
2018-03-15T11:10:09.259Z,66.47
2018-03-15T11:10:53.978Z,66.09
2018-03-15T11:11:38.695Z,65.99
2018-03-15T11:12:23.403Z,65.61
2018-03-15T11:13:08.104Z,66.09
2018-03-15T11:13:52.819Z,65.99
2018-03-15T11:14:37.544Z,65.70
2018-03-15T11:15:22.266Z,65.89
2018-03-15T11:16:06.973Z,66.28
2018-03-15T11:16:51.694Z,66.18
2018-03-15T11:17:36.400Z,66.38
2018-03-15T11:18:21.112Z,66.38
2018-03-15T11:19:05.833Z,66.47
2018-03-15T11:19:50.545Z,66.94
2018-03-15T11:20:35.270Z,66.85
2018-03-15T11:21:19.979Z,67.61
2018-03-15T11:22:04.692Z,66.94
2018-03-15T11:22:49.414Z,67.99
2018-03-15T11:23:34.116Z,67.86
2018-03-15T11:24:18.827Z,68.24
2018-03-15T11:25:03.552Z,68.44
2018-03-15T11:25:48.261Z,68.12
2018-03-15T11:26:32.971Z,68.18
2018-03-15T11:27:17.679Z,69.23
2018-03-15T11:28:02.385Z,70.08
2018-03-15T11:28:47.096Z,71.00
2018-03-15T11:29:31.800Z,70.90
2018-03-15T11:30:16.512Z,72.24
2018-03-15T11:31:01.279Z,72.90
2018-03-15T11:31:46.454Z,72.52
2018-03-15T11:32:31.120Z,71.47
2018-03-15T11:33:15.821Z,70.90
2018-03-15T11:34:00.527Z,71.47
2018-03-15T11:34:45.244Z,72.81
2018-03-15T11:35:29.927Z,73.91
2018-03-15T11:36:14.638Z,74.77
2018-03-15T11:36:59.372Z,74.67
2018-03-15T11:37:44.072Z,74.96
2018-03-15T11:38:28.790Z,74.39
2018-03-15T11:39:13.710Z,74.10
2018-03-15T11:39:58.408Z,74.48
2018-03-15T11:40:43.146Z,74.96
2018-03-15T11:41:27.904Z,75.15
2018-03-15T11:42:12.646Z,75.40
2018-03-15T11:42:57.376Z,74.54
2018-03-15T11:43:42.171Z,74.73
2018-03-15T11:44:26.856Z,74.82
2018-03-15T11:45:11.566Z,75.59
2018-03-15T11:45:56.285Z,75.59
2018-03-15T11:46:40.989Z,75.78
2018-03-15T11:47:25.700Z,75.68
2018-03-15T11:48:10.422Z,75.78
2018-03-15T11:48:55.124Z,76.25
2018-03-15T11:49:39.833Z,76.25
2018-03-15T11:50:24.570Z,76.06
2018-03-15T11:51:09.332Z,76.16
2018-03-15T11:51:54.056Z,74.54
2018-03-15T11:52:38.789Z,74.73
2018-03-15T11:53:23.695Z,74.35
2018-03-15T11:54:08.401Z,73.40
2018-03-15T11:54:53.110Z,73.02
2018-03-15T11:55:37.880Z,74.16
2018-03-15T11:56:22.599Z,74.35
2018-03-15T11:57:07.303Z,74.39
2018-03-15T11:57:52.061Z,73.91
2018-03-15T11:58:36.764Z,73.91
2018-03-15T11:59:21.473Z,74.20
2018-03-15T12:00:06.225Z,73.82
2018-03-15T12:00:50.929Z,73.72
2018-03-15T12:01:35.678Z,74.20
2018-03-15T12:02:20.359Z,74.20
2018-03-15T12:03:05.075Z,73.82
2018-03-15T12:03:49.793Z,72.81
2018-03-15T12:04:34.518Z,72.24
2018-03-15T12:05:19.225Z,72.14
2018-03-15T12:06:03.944Z,72.62
2018-03-15T12:06:48.667Z,72.58
2018-03-15T12:07:33.442Z,72.86
2018-03-15T12:08:18.254Z,73.34
2018-03-15T12:09:02.947Z,72.33
2018-03-15T12:09:47.654Z,72.30
2018-03-15T12:10:32.359Z,72.20
2018-03-15T12:11:17.071Z,71.91
2018-03-15T12:12:01.824Z,72.58
2018-03-15T12:12:46.577Z,72.01
2018-03-15T12:13:31.368Z,72.30
2018-03-15T12:14:16.085Z,71.06
2018-03-15T12:15:00.792Z,70.68
2018-03-15T12:15:45.496Z,70.77
2018-03-15T12:16:30.189Z,71.25
2018-03-15T12:17:14.935Z,70.90
2018-03-15T12:17:59.622Z,70.87
2018-03-15T12:18:44.328Z,71.15
2018-03-15T12:19:29.058Z,71.00
2018-03-15T12:20:13.766Z,70.72
2018-03-15T12:20:58.474Z,69.76
2018-03-15T12:21:43.203Z,68.71
2018-03-15T12:22:27.910Z,68.62
2018-03-15T12:23:12.615Z,69.38
2018-03-15T12:23:57.323Z,69.38
2018-03-15T12:24:42.127Z,69.00
2018-03-15T12:25:26.822Z,68.43
2018-03-15T12:26:11.534Z,68.81
2018-03-15T12:26:56.261Z,68.81
2018-03-15T12:27:40.991Z,68.71
2018-03-15T12:28:25.725Z,68.62
2018-03-15T12:29:10.425Z,68.81
2018-03-15T12:29:55.199Z,69.29
2018-03-15T12:30:39.951Z,69.48
2018-03-15T12:31:24.664Z,68.71
2018-03-15T12:32:09.398Z,68.81
2018-03-15T12:32:54.131Z,67.76
2018-03-15T12:33:38.855Z,67.10
2018-03-15T12:34:23.563Z,66.62
2018-03-15T12:35:08.332Z,66.53
2018-03-15T12:35:53.028Z,67.19
2018-03-15T12:36:37.811Z,67.10
2018-03-15T12:37:22.519Z,67.10
2018-03-15T12:38:07.300Z,67.19
2018-03-15T12:38:52.011Z,67.00
2018-03-15T12:39:36.719Z,67.86
2018-03-15T12:40:21.445Z,67.95
2018-03-15T12:41:06.151Z,67.95
2018-03-15T12:41:50.888Z,68.05
2018-03-15T12:42:35.600Z,67.95
2018-03-15T12:43:20.300Z,66.62
2018-03-15T12:44:05.005Z,66.56
2018-03-15T12:44:49.711Z,66.27
2018-03-15T12:45:34.420Z,66.46
2018-03-15T12:46:19.178Z,66.08
2018-03-15T12:47:03.919Z,66.08
2018-03-15T12:47:48.629Z,65.89
2018-03-15T12:48:33.343Z,65.36
2018-03-15T12:49:18.144Z,64.50
2018-03-15T12:50:02.857Z,63.07
2018-03-15T12:50:47.574Z,62.78
2018-03-15T12:51:32.274Z,61.93
2018-03-15T12:52:16.988Z,60.40
2018-03-15T12:53:01.753Z,60.21
2018-03-15T12:53:46.474Z,60.02
2018-03-15T12:54:31.199Z,59.26
2018-03-15T12:55:15.954Z,58.97
2018-03-15T12:56:00.663Z,59.35
2018-03-15T12:56:45.366Z,60.02
2018-03-15T12:57:30.121Z,60.02
2018-03-15T12:58:14.799Z,60.43
2018-03-15T12:58:59.509Z,60.33
2018-03-15T12:59:44.219Z,60.11
2018-03-15T13:00:28.964Z,60.14
2018-03-15T13:01:13.657Z,60.14
2018-03-15T13:01:58.409Z,60.43
2018-03-15T13:02:43.396Z,59.95
2018-03-15T13:03:28.106Z,60.05
2018-03-15T13:04:12.814Z,59.95
2018-03-15T13:04:57.528Z,59.28
2018-03-15T13:05:42.270Z,58.72
2018-03-15T13:06:26.970Z,58.81
2018-03-15T13:07:11.774Z,59.09
2018-03-15T13:07:56.480Z,59.00
2018-03-15T13:08:41.211Z,59.28
2018-03-15T13:09:25.989Z,59.06
2018-03-15T13:10:10.693Z,58.50
2018-03-15T13:10:55.406Z,58.21
2018-03-15T13:11:40.166Z,58.21
2018-03-15T13:12:25.091Z,58.97
2018-03-15T13:13:09.823Z,59.09
2018-03-15T13:13:54.505Z,59.57
2018-03-15T13:14:39.237Z,59.67
2018-03-15T13:15:23.944Z,59.28
2018-03-15T13:16:08.652Z,60.33
2018-03-15T13:16:53.441Z,60.33
2018-03-15T13:17:38.164Z,59.67
2018-03-15T13:18:22.875Z,60.05
2018-03-15T13:19:07.602Z,59.48
2018-03-15T13:19:52.312Z,59.19
2018-03-15T13:20:37.023Z,59.28
2018-03-15T13:21:21.753Z,58.81
2018-03-15T13:22:06.491Z,58.33
2018-03-15T13:22:51.207Z,57.67
2018-03-15T13:23:35.938Z,57.95
2018-03-15T13:24:20.649Z,58.33
2018-03-15T13:25:05.372Z,58.33
2018-03-15T13:25:50.104Z,58.24
2018-03-15T13:26:34.811Z,58.24
2018-03-15T13:27:19.581Z,58.14
2018-03-15T13:28:04.302Z,58.07
2018-03-15T13:28:49.038Z,58.07
2018-03-15T13:29:33.765Z,57.50
2018-03-15T13:30:18.567Z,57.79
2018-03-15T13:31:03.235Z,57.22
2018-03-15T13:31:47.985Z,57.12
2018-03-15T13:32:32.690Z,57.31
2018-03-15T13:33:17.399Z,56.55
2018-03-15T13:34:02.107Z,56.01
2018-03-15T13:34:46.839Z,56.10
2018-03-15T13:35:31.556Z,55.41
2018-03-15T13:36:16.256Z,54.96
2018-03-15T13:37:00.987Z,55.53
2018-03-15T13:37:45.693Z,55.82
2018-03-15T13:38:30.400Z,56.01
2018-03-15T13:39:15.185Z,56.10
2018-03-15T13:39:59.832Z,56.20
2018-03-15T13:40:44.542Z,55.91
2018-03-15T13:41:29.250Z,56.20
2018-03-15T13:42:14.286Z,55.72
2018-03-15T13:42:58.991Z,55.34
2018-03-15T13:43:43.695Z,54.93
2018-03-15T13:44:28.409Z,55.05
2018-03-15T13:45:13.116Z,54.64
2018-03-15T13:45:57.826Z,54.83
2018-03-15T13:46:42.556Z,54.93
2018-03-15T13:47:27.365Z,54.74
2018-03-15T13:48:12.086Z,55.34
2018-03-15T13:48:56.820Z,55.53
2018-03-15T13:49:41.563Z,55.43
2018-03-15T13:50:26.276Z,55.62
2018-03-15T13:51:11.012Z,55.53
2018-03-15T13:51:55.784Z,55.24
2018-03-15T13:52:40.488Z,54.86
2018-03-15T13:53:25.251Z,54.67
2018-03-15T13:54:09.982Z,54.96
2018-03-15T13:54:54.689Z,54.86
2018-03-15T13:55:39.398Z,54.96
2018-03-15T13:56:24.132Z,54.86
2018-03-15T13:57:08.910Z,54.48
2018-03-15T13:57:53.618Z,54.86
2018-03-15T13:58:38.404Z,54.86
2018-03-15T13:59:23.105Z,54.86
2018-03-15T14:00:07.814Z,54.77
2018-03-15T14:00:52.586Z,55.05
2018-03-15T14:01:37.295Z,55.15
2018-03-15T14:02:22.027Z,55.24
2018-03-15T14:03:06.867Z,55.05
2018-03-15T14:03:51.588Z,54.48
2018-03-15T14:04:36.296Z,54.38
2018-03-15T14:05:21.007Z,54.38
2018-03-15T14:06:05.733Z,54.07
2018-03-15T14:06:50.446Z,53.50
2018-03-15T14:07:35.188Z,53.59
2018-03-15T14:08:19.883Z,54.26
2018-03-15T14:09:04.594Z,54.55
2018-03-15T14:09:49.303Z,54.83
2018-03-15T14:10:34.080Z,55.12
2018-03-15T14:11:18.789Z,55.60
2018-03-15T14:12:03.500Z,55.41
2018-03-15T14:12:48.231Z,55.60
2018-03-15T14:13:32.942Z,55.79
2018-03-15T14:14:17.646Z,55.69
2018-03-15T14:15:02.355Z,55.12
2018-03-15T14:15:47.114Z,55.21
2018-03-15T14:16:31.846Z,55.50
2018-03-15T14:17:16.555Z,55.60
2018-03-15T14:18:01.268Z,55.98
2018-03-15T14:18:45.994Z,55.88
2018-03-15T14:19:30.710Z,55.79
2018-03-15T14:20:15.436Z,55.98
2018-03-15T14:21:00.167Z,56.07
2018-03-15T14:21:44.881Z,56.07
2018-03-15T14:22:29.681Z,56.84
2018-03-15T14:23:14.434Z,56.84
2018-03-15T14:23:59.120Z,56.65
2018-03-15T14:24:43.825Z,56.46
2018-03-15T14:25:28.533Z,56.46
2018-03-15T14:26:13.259Z,56.17
2018-03-15T14:26:57.973Z,55.79
2018-03-15T14:27:42.682Z,56.07
2018-03-15T14:28:27.390Z,56.07
2018-03-15T14:29:12.100Z,56.46
2018-03-15T14:29:56.807Z,55.69
2018-03-15T14:30:41.730Z,55.60
2018-03-15T14:31:26.417Z,55.21
2018-03-15T14:32:11.152Z,55.02
2018-03-15T14:32:55.834Z,55.02
2018-03-15T14:33:40.567Z,55.02
2018-03-15T14:34:25.321Z,55.21
2018-03-15T14:35:10.028Z,55.43
2018-03-15T14:35:54.736Z,55.82
2018-03-15T14:36:39.446Z,56.20
2018-03-15T14:37:24.186Z,55.91
2018-03-15T14:38:08.911Z,56.20
2018-03-15T14:38:53.626Z,55.82
2018-03-15T14:39:38.369Z,55.15
2018-03-15T14:40:23.064Z,55.05
2018-03-15T14:41:07.788Z,54.70
2018-03-15T14:41:52.536Z,54.99
2018-03-15T14:42:37.302Z,54.89
2018-03-15T14:43:22.009Z,54.70
2018-03-15T14:44:06.801Z,55.08
2018-03-15T14:44:51.586Z,54.50
2018-03-15T14:45:36.263Z,54.79
2018-03-15T14:46:21.026Z,54.22
2018-03-15T14:47:05.774Z,54.60
2018-03-15T14:47:50.499Z,54.60
2018-03-15T14:48:35.299Z,54.03
2018-03-15T14:49:20.031Z,54.03
2018-03-15T14:50:04.735Z,53.17
2018-03-15T14:50:49.460Z,53.39
2018-03-15T14:51:34.221Z,53.67
2018-03-15T14:52:18.954Z,53.49
2018-03-15T14:53:03.708Z,53.86
2018-03-15T14:53:48.523Z,53.93
2018-03-15T14:54:33.278Z,54.50
2018-03-15T14:55:17.979Z,54.22
2018-03-15T14:56:02.917Z,53.65
2018-03-15T14:56:47.634Z,54.13
2018-03-15T14:57:32.422Z,54.50
2018-03-15T14:58:17.167Z,54.41
2018-03-15T14:59:01.903Z,54.41
2018-03-15T14:59:46.671Z,54.41
2018-03-15T15:00:31.496Z,54.41
2018-03-15T15:01:16.233Z,54.50
2018-03-15T15:02:00.942Z,54.13
2018-03-15T15:02:45.648Z,54.41
2018-03-15T15:03:30.430Z,54.32
2018-03-15T15:04:15.162Z,54.50
2018-03-15T15:04:59.921Z,54.32
2018-03-15T15:05:44.650Z,54.99
2018-03-15T15:06:29.362Z,55.08
2018-03-15T15:07:14.071Z,54.60
2018-03-15T15:07:58.799Z,54.89
2018-03-15T15:08:43.513Z,54.50
2018-03-15T15:09:28.219Z,54.70
2018-03-15T15:10:12.956Z,54.22
2018-03-15T15:10:57.693Z,54.89
2018-03-15T15:11:42.405Z,55.18
2018-03-15T15:12:27.147Z,54.79
2018-03-15T15:13:11.927Z,55.01
2018-03-15T15:13:56.631Z,55.01
2018-03-15T15:14:41.413Z,54.82
2018-03-15T15:15:26.119Z,54.63
2018-03-15T15:16:10.824Z,54.63
2018-03-15T15:16:55.535Z,54.25
2018-03-15T15:17:40.268Z,53.77
2018-03-15T15:18:24.978Z,53.58
2018-03-15T15:19:09.681Z,53.65
2018-03-15T15:19:54.400Z,53.55
2018-03-15T15:20:39.173Z,54.22
2018-03-15T15:21:23.880Z,54.50
2018-03-15T15:22:08.590Z,54.79
2018-03-15T15:22:53.326Z,54.50
2018-03-15T15:23:38.037Z,54.89
2018-03-15T15:24:22.736Z,54.79
2018-03-15T15:25:07.501Z,54.60
2018-03-15T15:25:52.211Z,54.70
2018-03-15T15:26:36.921Z,54.79
2018-03-15T15:27:21.700Z,54.89
2018-03-15T15:28:06.404Z,54.70
2018-03-15T15:28:51.129Z,54.50
2018-03-15T15:29:35.891Z,54.79
2018-03-15T15:30:20.815Z,54.50
2018-03-15T15:31:05.537Z,54.70
2018-03-15T15:31:50.281Z,54.79
2018-03-15T15:32:35.017Z,54.79
2018-03-15T15:33:19.744Z,55.27
2018-03-15T15:34:04.449Z,54.99
2018-03-15T15:34:49.161Z,54.70
2018-03-15T15:35:33.892Z,54.89
2018-03-15T15:36:18.603Z,54.79
2018-03-15T15:37:03.315Z,54.99
2018-03-15T15:37:48.022Z,54.67
2018-03-15T15:38:32.795Z,54.48
2018-03-15T15:39:17.560Z,54.38
2018-03-15T15:40:02.293Z,54.77
2018-03-15T15:40:47.002Z,55.05
2018-03-15T15:41:31.715Z,54.67
2018-03-15T15:42:16.500Z,54.96
2018-03-15T15:43:01.224Z,55.15
2018-03-15T15:43:45.984Z,55.82
2018-03-15T15:44:30.770Z,55.82
2018-03-15T15:45:15.492Z,56.10
2018-03-15T15:46:00.251Z,55.91
2018-03-15T15:46:45.047Z,56.01
2018-03-15T15:47:29.808Z,55.91
2018-03-15T15:48:14.560Z,55.72
2018-03-15T15:48:59.284Z,55.72
2018-03-15T15:49:44.008Z,55.62
2018-03-15T15:50:28.721Z,55.69
2018-03-15T15:51:13.426Z,55.88
2018-03-15T15:51:58.137Z,56.17
2018-03-15T15:52:43.060Z,56.55
2018-03-15T15:53:27.772Z,57.70
2018-03-15T15:54:12.552Z,57.89
2018-03-15T15:54:57.253Z,58.17
2018-03-15T15:55:41.964Z,57.89
2018-03-15T15:56:26.667Z,57.28
2018-03-15T15:57:11.374Z,57.41
2018-03-15T15:57:56.104Z,57.28
2018-03-15T15:58:40.812Z,57.28
2018-03-15T15:59:25.552Z,57.86
2018-03-15T16:00:10.289Z,57.76
2018-03-15T16:00:54.997Z,57.76
2018-03-15T16:01:39.703Z,58.52
2018-03-15T16:02:24.410Z,58.43
2018-03-15T16:03:09.123Z,58.33
2018-03-15T16:03:53.851Z,58.43
2018-03-15T16:04:38.583Z,58.14
2018-03-15T16:05:23.339Z,58.72
2018-03-15T16:06:08.068Z,59.19
2018-03-15T16:06:52.824Z,59.19
2018-03-15T16:07:37.528Z,58.43
2018-03-15T16:08:22.309Z,58.43
2018-03-15T16:09:07.016Z,58.33
2018-03-15T16:09:51.720Z,58.52
2018-03-15T16:10:36.427Z,59.09
2018-03-15T16:11:21.137Z,59.38
2018-03-15T16:12:05.866Z,59.76
2018-03-15T16:12:50.576Z,60.05
2018-03-15T16:13:35.286Z,59.57
2018-03-15T16:14:20.012Z,60.24
2018-03-15T16:15:04.726Z,60.33
2018-03-15T16:15:49.466Z,59.48